Terminal Aerodrome Forecast
Issued by NWS

Home | Current Version | Previous Version | Text Only | Print | Product List | Glossary On
Versions: 1 2 3 4 5 6 7 8 9 10 11 12 13 14 15 16 17 18 19 20 21 22 23 24
000
FTUS43 KILX 271100
TAFCMI
TAF
KCMI 271127Z 2712/2812 36008KT P6SM BKN035
      TEMPO 2712/2716 BKN025 OVC035
     FM271700 36014KT P6SM SCT050
     FM280000 03007KT P6SM SCT150=

USA.gov is the U.S. government's official web portal to all federal, state and local government web resources and services.